Terminal Aerodrome Forecast
Issued by NWS

Home | Current Version | Previous Version | Graphics & Text | Print | Product List | Glossary On
Versions: 1 2 3 4 5 6 7 8 9 10 11 12 13 14 15 16 17 18 19 20 21 22 23 24 25 26 27 28 29 30 31 32 33 34 35
000
FTUS43 KLOT 010859 AAA
TAFORD
TAF AMD
KORD 010859Z 0109/0212 19003KT 6SM BR SCT050
     FM011100 20003KT 5SM BR SCT050
     FM011300 22009KT P6SM SCT050
     FM020300 23006KT 6SM BR FEW040 SCT250=

USA.gov is the U.S. government's official web portal to all federal, state and local government web resources and services.